sensor_id;sensor_type;location;lat;lon;timestamp;temperature;humidity
6496;DHT22;3281;47.658;9.166;2022-11-11T00:02:14;9.20;48.80
6496;DHT22;3281;47.658;9.166;2022-11-11T00:04:41;9.20;47.60
6496;DHT22;3281;47.658;9.166;2022-11-11T00:07:08;9.20;49.40
6496;DHT22;3281;47.658;9.166;2022-11-11T00:09:34;9.40;54.50
6496;DHT22;3281;47.658;9.166;2022-11-11T00:12:01;9.40;52.80
6496;DHT22;3281;47.658;9.166;2022-11-11T00:14:28;9.30;47.70
6496;DHT22;3281;47.658;9.166;2022-11-11T00:16:55;9.30;47.70
6496;DHT22;3281;47.658;9.166;2022-11-11T00:19:46;9.30;52.80
6496;DHT22;3281;47.658;9.166;2022-11-11T00:22:30;9.40;51.00
6496;DHT22;3281;47.658;9.166;2022-11-11T00:25:16;9.40;49.20
6496;DHT22;3281;47.658;9.166;2022-11-11T00:27:43;9.40;53.00
6496;DHT22;3281;47.658;9.166;2022-11-11T00:30:10;9.60;53.00
6496;DHT22;3281;47.658;9.166;2022-11-11T00:32:36;9.60;47.90
6496;DHT22;3281;47.658;9.166;2022-11-11T00:35:05;9.60;50.70
6496;DHT22;3281;47.658;9.166;2022-11-11T00:37:49;9.70;50.80
6496;DHT22;3281;47.658;9.166;2022-11-11T00:40:16;9.50;47.80
6496;DHT22;3281;47.658;9.166;2022-11-11T00:42:43;9.50;50.30
6496;DHT22;3281;47.658;9.166;2022-11-11T00:45:10;9.70;56.00
6496;DHT22;3281;47.658;9.166;2022-11-11T00:47:37;9.70;52.60
6496;DHT22;3281;47.658;9.166;2022-11-11T00:50:25;9.60;52.80
6496;DHT22;3281;47.658;9.166;2022-11-11T00:53:12;9.60;52.00
6496;DHT22;3281;47.658;9.166;2022-11-11T00:55:39;9.70;53.20
6496;DHT22;3281;47.658;9.166;2022-11-11T00:58:06;9.80;53.20
6496;DHT22;3281;47.658;9.166;2022-11-11T01:00:33;9.80;52.60
6496;DHT22;3281;47.658;9.166;2022-11-11T01:02:59;9.70;49.60
6496;DHT22;3281;47.658;9.166;2022-11-11T01:05:28;9.70;50.80
6496;DHT22;3281;47.658;9.166;2022-11-11T01:07:54;9.70;49.90
6496;DHT22;3281;47.658;9.166;2022-11-11T01:10:21;9.60;49.40
6496;DHT22;3281;47.658;9.166;2022-11-11T01:13:13;9.60;49.00
6496;DHT22;3281;47.658;9.166;2022-11-11T01:15:40;9.60;53.10
6496;DHT22;3281;47.658;9.166;2022-11-11T01:18:08;9.50;50.90
6496;DHT22;3281;47.658;9.166;2022-11-11T01:20:37;9.70;54.10
6496;DHT22;3281;47.658;9.166;2022-11-11T01:23:04;9.70;51.20
6496;DHT22;3281;47.658;9.166;2022-11-11T01:25:32;9.60;54.40
6496;DHT22;3281;47.658;9.166;2022-11-11T01:28:00;9.60;54.20
6496;DHT22;3281;47.658;9.166;2022-11-11T01:30:26;9.60;52.90
6496;DHT22;3281;47.658;9.166;2022-11-11T01:32:53;9.70;58.10
6496;DHT22;3281;47.658;9.166;2022-11-11T01:35:20;9.70;54.50
6496;DHT22;3281;47.658;9.166;2022-11-11T01:37:48;9.70;53.20
6496;DHT22;3281;47.658;9.166;2022-11-11T01:40:16;9.50;48.10
6496;DHT22;3281;47.658;9.166;2022-11-11T01:42:47;9.60;53.70
6496;DHT22;3281;47.658;9.166;2022-11-11T01:45:46;9.60;54.60
6496;DHT22;3281;47.658;9.166;2022-11-11T01:48:17;9.60;54.30
6496;DHT22;3281;47.658;9.166;2022-11-11T01:51:03;9.60;54.00
6496;DHT22;3281;47.658;9.166;2022-11-11T01:53:32;9.50;53.90
6496;DHT22;3281;47.658;9.166;2022-11-11T01:55:59;9.60;54.30
6496;DHT22;3281;47.658;9.166;2022-11-11T01:58:28;9.50;55.90
6496;DHT22;3281;47.658;9.166;2022-11-11T02:00:55;9.50;56.00
6496;DHT22;3281;47.658;9.166;2022-11-11T02:03:24;9.50;56.50
6496;DHT22;3281;47.658;9.166;2022-11-11T02:05:53;9.60;58.20
6496;DHT22;3281;47.658;9.166;2022-11-11T02:08:25;9.50;57.70
6496;DHT22;3281;47.658;9.166;2022-11-11T02:11:03;9.70;58.30
6496;DHT22;3281;47.658;9.166;2022-11-11T02:13:30;9.80;58.40
6496;DHT22;3281;47.658;9.166;2022-11-11T02:16:15;9.70;53.30
6496;DHT22;3281;47.658;9.166;2022-11-11T02:18:42;9.70;55.70
6496;DHT22;3281;47.658;9.166;2022-11-11T02:21:12;9.70;58.20
6496;DHT22;3281;47.658;9.166;2022-11-11T02:23:43;9.70;55.00
6496;DHT22;3281;47.658;9.166;2022-11-11T02:26:15;9.70;54.50
6496;DHT22;3281;47.658;9.166;2022-11-11T02:28:43;9.70;56.30
6496;DHT22;3281;47.658;9.166;2022-11-11T02:31:10;9.70;53.20
6496;DHT22;3281;47.658;9.166;2022-11-11T02:33:38;9.70;53.50
6496;DHT22;3281;47.658;9.166;2022-11-11T02:36:05;9.70;53.30
6496;DHT22;3281;47.658;9.166;2022-11-11T02:38:35;9.80;53.00
6496;DHT22;3281;47.658;9.166;2022-11-11T02:41:02;9.70;51.10
6496;DHT22;3281;47.658;9.166;2022-11-11T02:43:48;9.70;52.00
6496;DHT22;3281;47.658;9.166;2022-11-11T02:46:15;9.70;53.50
6496;DHT22;3281;47.658;9.166;2022-11-11T02:48:41;9.70;54.60
6496;DHT22;3281;47.658;9.166;2022-11-11T02:51:08;9.70;58.10
6496;DHT22;3281;47.658;9.166;2022-11-11T02:53:35;9.70;53.90
6496;DHT22;3281;47.658;9.166;2022-11-11T02:56:02;9.60;51.20
6496;DHT22;3281;47.658;9.166;2022-11-11T02:58:29;9.60;53.30
6496;DHT22;3281;47.658;9.166;2022-11-11T03:00:57;9.50;50.10
6496;DHT22;3281;47.658;9.166;2022-11-11T03:03:24;9.60;52.90
6496;DHT22;3281;47.658;9.166;2022-11-11T03:05:50;9.60;54.90
6496;DHT22;3281;47.658;9.166;2022-11-11T03:08:17;9.70;53.20
6496;DHT22;3281;47.658;9.166;2022-11-11T03:10:44;9.60;51.70
6496;DHT22;3281;47.658;9.166;2022-11-11T03:13:11;9.70;53.40
6496;DHT22;3281;47.658;9.166;2022-11-11T03:15:37;9.60;49.60
6496;DHT22;3281;47.658;9.166;2022-11-11T03:18:05;9.60;51.90
6496;DHT22;3281;47.658;9.166;2022-11-11T03:20:31;9.50;51.80
6496;DHT22;3281;47.658;9.166;2022-11-11T03:23:15;9.60;48.00
6496;DHT22;3281;47.658;9.166;2022-11-11T03:25:44;9.60;50.40
6496;DHT22;3281;47.658;9.166;2022-11-11T03:28:12;9.50;51.40
6496;DHT22;3281;47.658;9.166;2022-11-11T03:30:41;9.40;48.80
6496;DHT22;3281;47.658;9.166;2022-11-11T03:33:10;9.50;53.00
6496;DHT22;3281;47.658;9.166;2022-11-11T03:35:36;9.50;56.00
6496;DHT22;3281;47.658;9.166;2022-11-11T03:38:05;9.50;53.20
6496;DHT22;3281;47.658;9.166;2022-11-11T03:40:49;9.50;53.80
6496;DHT22;3281;47.658;9.166;2022-11-11T03:43:18;9.40;50.50
6496;DHT22;3281;47.658;9.166;2022-11-11T03:45:45;9.40;55.00
6496;DHT22;3281;47.658;9.166;2022-11-11T03:48:13;9.40;53.50
6496;DHT22;3281;47.658;9.166;2022-11-11T03:50:40;9.50;55.40
6496;DHT22;3281;47.658;9.166;2022-11-11T03:53:07;9.50;55.60
6496;DHT22;3281;47.658;9.166;2022-11-11T03:55:34;9.60;57.40
6496;DHT22;3281;47.658;9.166;2022-11-11T03:58:01;9.70;56.50
6496;DHT22;3281;47.658;9.166;2022-11-11T04:00:28;9.70;56.70
6496;DHT22;3281;47.658;9.166;2022-11-11T04:03:01;9.90;53.40
6496;DHT22;3281;47.658;9.166;2022-11-11T04:05:47;9.90;51.80
6496;DHT22;3281;47.658;9.166;2022-11-11T04:08:31;9.70;48.10
6496;DHT22;3281;47.658;9.166;2022-11-11T04:11:20;9.80;53.50
6496;DHT22;3281;47.658;9.166;2022-11-11T04:13:48;10.00;50.30
6496;DHT22;3281;47.658;9.166;2022-11-11T04:16:37;9.80;48.50
6496;DHT22;3281;47.658;9.166;2022-11-11T04:19:04;9.80;52.70
6496;DHT22;3281;47.658;9.166;2022-11-11T04:21:50;9.90;52.10
6496;DHT22;3281;47.658;9.166;2022-11-11T04:24:18;9.80;48.00
6496;DHT22;3281;47.658;9.166;2022-11-11T04:27:04;9.80;47.20
6496;DHT22;3281;47.658;9.166;2022-11-11T04:29:32;9.70;47.20
6496;DHT22;3281;47.658;9.166;2022-11-11T04:31:59;9.70;48.00
6496;DHT22;3281;47.658;9.166;2022-11-11T04:34:45;9.60;45.10
6496;DHT22;3281;47.658;9.166;2022-11-11T04:37:14;9.60;51.00
6496;DHT22;3281;47.658;9.166;2022-11-11T04:39:41;9.80;48.10
6496;DHT22;3281;47.658;9.166;2022-11-11T04:42:26;9.70;46.30
6496;DHT22;3281;47.658;9.166;2022-11-11T04:44:53;9.80;48.10
6496;DHT22;3281;47.658;9.166;2022-11-11T04:47:38;9.70;48.00
6496;DHT22;3281;47.658;9.166;2022-11-11T04:50:17;9.90;44.60
6496;DHT22;3281;47.658;9.166;2022-11-11T04:52:45;9.80;47.20
6496;DHT22;3281;47.658;9.166;2022-11-11T04:55:13;9.90;44.70
6496;DHT22;3281;47.658;9.166;2022-11-11T04:57:57;9.90;46.00
6496;DHT22;3281;47.658;9.166;2022-11-11T05:00:24;9.80;47.50
6496;DHT22;3281;47.658;9.166;2022-11-11T05:02:52;10.00;46.90
6496;DHT22;3281;47.658;9.166;2022-11-11T05:05:37;9.90;45.50
6496;DHT22;3281;47.658;9.166;2022-11-11T05:08:19;9.80;47.40
6496;DHT22;3281;47.658;9.166;2022-11-11T05:11:03;9.80;51.20
6496;DHT22;3281;47.658;9.166;2022-11-11T05:13:30;9.70;48.20
6496;DHT22;3281;47.658;9.166;2022-11-11T05:16:17;9.70;49.90
6496;DHT22;3281;47.658;9.166;2022-11-11T05:19:02;9.80;48.10
6496;DHT22;3281;47.658;9.166;2022-11-11T05:21:47;9.90;50.40
6496;DHT22;3281;47.658;9.166;2022-11-11T05:24:15;9.80;48.10
6496;DHT22;3281;47.658;9.166;2022-11-11T05:26:59;9.90;50.50
6496;DHT22;3281;47.658;9.166;2022-11-11T05:29:26;9.80;49.10
6496;DHT22;3281;47.658;9.166;2022-11-11T05:31:52;9.80;52.40
6496;DHT22;3281;47.658;9.166;2022-11-11T05:34:19;9.80;48.40
6496;DHT22;3281;47.658;9.166;2022-11-11T05:36:46;9.90;48.20
6496;DHT22;3281;47.658;9.166;2022-11-11T05:39:13;9.90;48.10
6496;DHT22;3281;47.658;9.166;2022-11-11T05:41:41;9.80;43.30
6496;DHT22;3281;47.658;9.166;2022-11-11T05:44:07;9.70;44.50
6496;DHT22;3281;47.658;9.166;2022-11-11T05:46:34;9.70;47.50
6496;DHT22;3281;47.658;9.166;2022-11-11T05:49:01;9.80;48.70
6496;DHT22;3281;47.658;9.166;2022-11-11T05:51:43;9.80;45.50
6496;DHT22;3281;47.658;9.166;2022-11-11T05:54:10;9.80;46.50
6496;DHT22;3281;47.658;9.166;2022-11-11T05:56:37;9.80;47.80
6496;DHT22;3281;47.658;9.166;2022-11-11T05:59:06;9.80;44.00
6496;DHT22;3281;47.658;9.166;2022-11-11T06:01:33;9.80;42.20
6496;DHT22;3281;47.658;9.166;2022-11-11T06:04:00;9.90;45.80
6496;DHT22;3281;47.658;9.166;2022-11-11T06:06:27;9.90;44.00
6496;DHT22;3281;47.658;9.166;2022-11-11T06:08:54;9.80;47.20
6496;DHT22;3281;47.658;9.166;2022-11-11T06:11:20;9.90;42.80
6496;DHT22;3281;47.658;9.166;2022-11-11T06:13:48;9.80;40.20
6496;DHT22;3281;47.658;9.166;2022-11-11T06:16:16;9.90;43.40
6496;DHT22;3281;47.658;9.166;2022-11-11T06:18:43;9.80;37.50
6496;DHT22;3281;47.658;9.166;2022-11-11T06:21:09;9.80;39.80
6496;DHT22;3281;47.658;9.166;2022-11-11T06:23:36;9.60;37.20
6496;DHT22;3281;47.658;9.166;2022-11-11T06:26:03;9.50;39.10
6496;DHT22;3281;47.658;9.166;2022-11-11T06:28:40;9.60;41.40
6496;DHT22;3281;47.658;9.166;2022-11-11T06:31:08;9.50;37.20
6496;DHT22;3281;47.658;9.166;2022-11-11T06:33:37;9.60;37.90
6496;DHT22;3281;47.658;9.166;2022-11-11T06:36:05;9.60;38.50
6496;DHT22;3281;47.658;9.166;2022-11-11T06:38:32;9.60;37.30
6496;DHT22;3281;47.658;9.166;2022-11-11T06:40:59;9.50;37.40
6496;DHT22;3281;47.658;9.166;2022-11-11T06:43:26;9.50;38.50
6496;DHT22;3281;47.658;9.166;2022-11-11T06:45:53;9.50;40.40
6496;DHT22;3281;47.658;9.166;2022-11-11T06:48:21;9.60;40.10
6496;DHT22;3281;47.658;9.166;2022-11-11T06:50:49;9.60;39.50
6496;DHT22;3281;47.658;9.166;2022-11-11T06:53:17;9.50;37.90
6496;DHT22;3281;47.658;9.166;2022-11-11T06:55:44;9.60;40.00
6496;DHT22;3281;47.658;9.166;2022-11-11T06:58:12;9.60;41.40
6496;DHT22;3281;47.658;9.166;2022-11-11T07:00:41;9.60;39.20
6496;DHT22;3281;47.658;9.166;2022-11-11T07:03:10;9.60;37.50
6496;DHT22;3281;47.658;9.166;2022-11-11T07:05:37;9.60;37.20
6496;DHT22;3281;47.658;9.166;2022-11-11T07:08:07;9.60;39.00
6496;DHT22;3281;47.658;9.166;2022-11-11T07:10:36;9.60;37.30
6496;DHT22;3281;47.658;9.166;2022-11-11T07:13:03;9.60;38.00
6496;DHT22;3281;47.658;9.166;2022-11-11T07:15:31;9.70;38.20
6496;DHT22;3281;47.658;9.166;2022-11-11T07:17:58;9.70;40.30
6496;DHT22;3281;47.658;9.166;2022-11-11T07:20:25;9.70;37.30
6496;DHT22;3281;47.658;9.166;2022-11-11T07:22:51;9.80;38.50
6496;DHT22;3281;47.658;9.166;2022-11-11T07:25:19;9.90;37.60
6496;DHT22;3281;47.658;9.166;2022-11-11T07:27:46;9.80;37.20
6496;DHT22;3281;47.658;9.166;2022-11-11T07:30:13;9.90;36.50
6496;DHT22;3281;47.658;9.166;2022-11-11T07:32:43;9.90;37.70
6496;DHT22;3281;47.658;9.166;2022-11-11T07:35:11;10.00;36.70
6496;DHT22;3281;47.658;9.166;2022-11-11T07:37:39;10.10;36.80
6496;DHT22;3281;47.658;9.166;2022-11-11T07:40:07;10.20;37.00
6496;DHT22;3281;47.658;9.166;2022-11-11T07:42:37;10.30;36.50
6496;DHT22;3281;47.658;9.166;2022-11-11T07:45:05;10.30;35.90
6496;DHT22;3281;47.658;9.166;2022-11-11T07:47:32;10.20;36.90
6496;DHT22;3281;47.658;9.166;2022-11-11T07:50:00;10.20;40.50
6496;DHT22;3281;47.658;9.166;2022-11-11T07:52:26;10.30;35.90
6496;DHT22;3281;47.658;9.166;2022-11-11T07:54:53;10.30;36.40
6496;DHT22;3281;47.658;9.166;2022-11-11T07:57:20;10.30;36.90
6496;DHT22;3281;47.658;9.166;2022-11-11T07:59:49;10.30;36.90
6496;DHT22;3281;47.658;9.166;2022-11-11T08:02:16;10.30;31.30
6496;DHT22;3281;47.658;9.166;2022-11-11T08:04:43;10.20;35.90
6496;DHT22;3281;47.658;9.166;2022-11-11T08:07:10;10.30;34.20
6496;DHT22;3281;47.658;9.166;2022-11-11T08:09:37;10.30;33.70
6496;DHT22;3281;47.658;9.166;2022-11-11T08:12:04;10.30;31.40
6496;DHT22;3281;47.658;9.166;2022-11-11T08:14:49;10.40;32.50
6496;DHT22;3281;47.658;9.166;2022-11-11T08:17:16;10.40;32.50
6496;DHT22;3281;47.658;9.166;2022-11-11T08:19:43;10.40;30.30
6496;DHT22;3281;47.658;9.166;2022-11-11T08:22:10;10.30;29.60
6496;DHT22;3281;47.658;9.166;2022-11-11T08:24:36;10.30;33.60
6496;DHT22;3281;47.658;9.166;2022-11-11T08:27:03;10.40;37.00
6496;DHT22;3281;47.658;9.166;2022-11-11T08:29:30;10.30;34.00
6496;DHT22;3281;47.658;9.166;2022-11-11T08:31:58;10.40;35.00
6496;DHT22;3281;47.658;9.166;2022-11-11T08:34:25;10.30;36.90
6496;DHT22;3281;47.658;9.166;2022-11-11T08:36:51;10.20;36.80
6496;DHT22;3281;47.658;9.166;2022-11-11T08:39:18;10.40;36.70
6496;DHT22;3281;47.658;9.166;2022-11-11T08:41:45;10.40;36.70
6496;DHT22;3281;47.658;9.166;2022-11-11T08:44:11;10.50;37.10
6496;DHT22;3281;47.658;9.166;2022-11-11T08:46:39;10.50;36.70
6496;DHT22;3281;47.658;9.166;2022-11-11T08:49:07;10.50;37.30
6496;DHT22;3281;47.658;9.166;2022-11-11T08:51:35;10.60;37.20
6496;DHT22;3281;47.658;9.166;2022-11-11T08:54:02;10.60;34.50
6496;DHT22;3281;47.658;9.166;2022-11-11T08:56:29;10.50;36.10
6496;DHT22;3281;47.658;9.166;2022-11-11T08:58:56;10.50;34.40
6496;DHT22;3281;47.658;9.166;2022-11-11T09:01:23;10.50;36.20
6496;DHT22;3281;47.658;9.166;2022-11-11T09:03:49;10.50;37.10
6496;DHT22;3281;47.658;9.166;2022-11-11T09:06:17;10.60;37.20
6496;DHT22;3281;47.658;9.166;2022-11-11T09:08:44;10.50;34.30
6496;DHT22;3281;47.658;9.166;2022-11-11T09:11:11;10.60;37.20
6496;DHT22;3281;47.658;9.166;2022-11-11T09:13:38;10.70;40.20
6496;DHT22;3281;47.658;9.166;2022-11-11T09:16:06;10.50;31.80
6496;DHT22;3281;47.658;9.166;2022-11-11T09:18:33;10.70;38.20
6496;DHT22;3281;47.658;9.166;2022-11-11T09:21:00;10.80;37.00
6496;DHT22;3281;47.658;9.166;2022-11-11T09:23:28;10.80;35.50
6496;DHT22;3281;47.658;9.166;2022-11-11T09:25:55;10.70;30.60
6496;DHT22;3281;47.658;9.166;2022-11-11T09:28:22;10.80;37.00
6496;DHT22;3281;47.658;9.166;2022-11-11T09:30:49;10.80;33.40
6496;DHT22;3281;47.658;9.166;2022-11-11T09:33:16;10.80;32.20
6496;DHT22;3281;47.658;9.166;2022-11-11T09:35:44;10.80;28.70
6496;DHT22;3281;47.658;9.166;2022-11-11T09:38:10;10.70;27.20
6496;DHT22;3281;47.658;9.166;2022-11-11T09:40:48;10.70;29.60
6496;DHT22;3281;47.658;9.166;2022-11-11T09:43:24;10.90;31.50
6496;DHT22;3281;47.658;9.166;2022-11-11T09:46:02;10.80;27.20
6496;DHT22;3281;47.658;9.166;2022-11-11T09:48:51;10.90;28.00
6496;DHT22;3281;47.658;9.166;2022-11-11T09:51:27;10.90;30.40
6496;DHT22;3281;47.658;9.166;2022-11-11T09:53:59;10.90;33.30
6496;DHT22;3281;47.658;9.166;2022-11-11T09:56:32;10.90;31.70
6496;DHT22;3281;47.658;9.166;2022-11-11T09:59:04;10.90;28.40
6496;DHT22;3281;47.658;9.166;2022-11-11T10:01:37;10.90;29.70
6496;DHT22;3281;47.658;9.166;2022-11-11T10:04:11;11.00;32.20
6496;DHT22;3281;47.658;9.166;2022-11-11T10:06:41;11.00;32.20
6496;DHT22;3281;47.658;9.166;2022-11-11T10:09:16;11.00;27.40
6496;DHT22;3281;47.658;9.166;2022-11-11T10:11:52;11.00;27.40
6496;DHT22;3281;47.658;9.166;2022-11-11T10:14:20;11.00;27.40
6496;DHT22;3281;47.658;9.166;2022-11-11T10:16:53;11.00;25.10
6496;DHT22;3281;47.658;9.166;2022-11-11T10:19:28;11.10;29.50
6496;DHT22;3281;47.658;9.166;2022-11-11T10:21:57;10.90;24.90
6496;DHT22;3281;47.658;9.166;2022-11-11T10:24:28;10.90;24.20
6496;DHT22;3281;47.658;9.166;2022-11-11T10:26:59;10.90;22.50
6496;DHT22;3281;47.658;9.166;2022-11-11T10:29:30;11.00;25.90
6496;DHT22;3281;47.658;9.166;2022-11-11T10:32:04;11.00;25.40
6496;DHT22;3281;47.658;9.166;2022-11-11T10:34:35;11.00;23.20
6496;DHT22;3281;47.658;9.166;2022-11-11T10:37:09;11.10;28.20
6496;DHT22;3281;47.658;9.166;2022-11-11T10:39:49;11.10;18.60
6496;DHT22;3281;47.658;9.166;2022-11-11T10:42:20;11.10;23.30
6496;DHT22;3281;47.658;9.166;2022-11-11T10:44:47;11.00;21.60
6496;DHT22;3281;47.658;9.166;2022-11-11T10:47:18;11.00;22.50
6496;DHT22;3281;47.658;9.166;2022-11-11T10:49:53;11.20;27.10
6496;DHT22;3281;47.658;9.166;2022-11-11T10:52:26;11.10;20.20
6496;DHT22;3281;47.658;9.166;2022-11-11T10:54:57;11.20;20.70
6496;DHT22;3281;47.658;9.166;2022-11-11T10:57:32;11.30;21.50
6496;DHT22;3281;47.658;9.166;2022-11-11T11:00:05;11.40;19.70
6496;DHT22;3281;47.658;9.166;2022-11-11T11:02:38;11.40;18.80
6496;DHT22;3281;47.658;9.166;2022-11-11T11:05:09;11.40;23.20
6496;DHT22;3281;47.658;9.166;2022-11-11T11:07:40;11.20;16.30
6496;DHT22;3281;47.658;9.166;2022-11-11T11:10:13;11.30;20.50
6496;DHT22;3281;47.658;9.166;2022-11-11T11:12:48;11.30;22.40
6496;DHT22;3281;47.658;9.166;2022-11-11T11:15:17;11.30;18.80
6496;DHT22;3281;47.658;9.166;2022-11-11T11:17:52;11.30;18.70
6496;DHT22;3281;47.658;9.166;2022-11-11T11:20:20;11.50;20.40
6496;DHT22;3281;47.658;9.166;2022-11-11T11:22:49;11.40;18.80
6496;DHT22;3281;47.658;9.166;2022-11-11T11:25:18;11.40;19.00
6496;DHT22;3281;47.658;9.166;2022-11-11T11:27:49;11.40;15.70
6496;DHT22;3281;47.658;9.166;2022-11-11T11:30:18;11.50;19.10
6496;DHT22;3281;47.658;9.166;2022-11-11T11:32:55;11.50;18.70
6496;DHT22;3281;47.658;9.166;2022-11-11T11:35:31;11.60;15.90
6496;DHT22;3281;47.658;9.166;2022-11-11T11:37:58;11.60;16.90
6496;DHT22;3281;47.658;9.166;2022-11-11T11:40:25;11.50;14.60
6496;DHT22;3281;47.658;9.166;2022-11-11T11:42:54;11.40;16.20
6496;DHT22;3281;47.658;9.166;2022-11-11T11:45:23;11.60;17.00
6496;DHT22;3281;47.658;9.166;2022-11-11T11:48:02;11.60;16.10
6496;DHT22;3281;47.658;9.166;2022-11-11T11:50:40;11.60;17.60
6496;DHT22;3281;47.658;9.166;2022-11-11T11:56:11;11.70;17.90
6496;DHT22;3281;47.658;9.166;2022-11-11T11:58:55;11.80;19.00
6496;DHT22;3281;47.658;9.166;2022-11-11T12:01:26;11.70;14.00
6496;DHT22;3281;47.658;9.166;2022-11-11T12:04:33;11.80;15.70
6496;DHT22;3281;47.658;9.166;2022-11-11T12:07:11;11.80;10.80
6496;DHT22;3281;47.658;9.166;2022-11-11T12:09:53;11.90;14.40
6496;DHT22;3281;47.658;9.166;2022-11-11T12:12:28;11.90;9.90
6496;DHT22;3281;47.658;9.166;2022-11-11T12:15:06;11.90;10.50
6496;DHT22;3281;47.658;9.166;2022-11-11T12:17:47;12.00;12.20
6496;DHT22;3281;47.658;9.166;2022-11-11T12:20:19;12.00;11.20
6496;DHT22;3281;47.658;9.166;2022-11-11T12:22:59;12.10;10.00
6496;DHT22;3281;47.658;9.166;2022-11-11T12:25:39;12.10;10.00
6496;DHT22;3281;47.658;9.166;2022-11-11T12:28:18;12.00;5.10
6496;DHT22;3281;47.658;9.166;2022-11-11T12:30:57;11.90;9.20
6496;DHT22;3281;47.658;9.166;2022-11-11T12:33:43;11.90;8.20
6496;DHT22;3281;47.658;9.166;2022-11-11T12:36:20;11.90;9.10
6496;DHT22;3281;47.658;9.166;2022-11-11T12:38:56;11.90;8.40
6496;DHT22;3281;47.658;9.166;2022-11-11T12:41:26;11.90;7.70
6496;DHT22;3281;47.658;9.166;2022-11-11T12:44:02;11.90;5.60
6496;DHT22;3281;47.658;9.166;2022-11-11T12:46:41;12.00;9.50
6496;DHT22;3281;47.658;9.166;2022-11-11T12:49:27;11.90;10.00
6496;DHT22;3281;47.658;9.166;2022-11-11T12:52:02;11.90;10.10
6496;DHT22;3281;47.658;9.166;2022-11-11T12:54:40;11.80;9.80
6496;DHT22;3281;47.658;9.166;2022-11-11T12:57:16;11.80;9.50
6496;DHT22;3281;47.658;9.166;2022-11-11T13:00:04;11.70;9.30
6496;DHT22;3281;47.658;9.166;2022-11-11T13:02:53;11.70;8.50
6496;DHT22;3281;47.658;9.166;2022-11-11T13:05:27;11.70;9.80
6496;DHT22;3281;47.658;9.166;2022-11-11T13:08:12;11.70;8.10
6496;DHT22;3281;47.658;9.166;2022-11-11T13:10:46;11.70;9.30
6496;DHT22;3281;47.658;9.166;2022-11-11T13:13:34;11.70;8.90
6496;DHT22;3281;47.658;9.166;2022-11-11T13:16:06;11.60;6.40
6496;DHT22;3281;47.658;9.166;2022-11-11T13:18:42;11.60;7.40
6496;DHT22;3281;47.658;9.166;2022-11-11T13:21:15;11.60;6.40
6496;DHT22;3281;47.658;9.166;2022-11-11T13:23:43;11.60;8.60
6496;DHT22;3281;47.658;9.166;2022-11-11T13:26:22;11.70;9.60
6496;DHT22;3281;47.658;9.166;2022-11-11T13:28:59;11.70;7.90
6496;DHT22;3281;47.658;9.166;2022-11-11T13:31:34;11.80;10.30
6496;DHT22;3281;47.658;9.166;2022-11-11T13:34:04;11.80;10.00
6496;DHT22;3281;47.658;9.166;2022-11-11T13:36:44;11.90;9.90
6496;DHT22;3281;47.658;9.166;2022-11-11T13:39:23;12.00;8.00
6496;DHT22;3281;47.658;9.166;2022-11-11T13:41:53;11.90;10.20
6496;DHT22;3281;47.658;9.166;2022-11-11T13:44:23;11.90;9.60
6496;DHT22;3281;47.658;9.166;2022-11-11T13:46:51;11.80;7.70
6496;DHT22;3281;47.658;9.166;2022-11-11T13:49:29;11.90;11.10
6496;DHT22;3281;47.658;9.166;2022-11-11T13:51:59;11.80;11.20
6496;DHT22;3281;47.658;9.166;2022-11-11T13:54:28;11.80;11.70
6496;DHT22;3281;47.658;9.166;2022-11-11T13:57:02;11.80;12.10
6496;DHT22;3281;47.658;9.166;2022-11-11T13:59:31;11.80;11.50
6496;DHT22;3281;47.658;9.166;2022-11-11T14:02:31;11.70;9.80
6496;DHT22;3281;47.658;9.166;2022-11-11T14:05:19;11.70;12.40
6496;DHT22;3281;47.658;9.166;2022-11-11T14:07:48;11.70;12.40
6496;DHT22;3281;47.658;9.166;2022-11-11T14:10:46;11.70;9.80
6496;DHT22;3281;47.658;9.166;2022-11-11T14:13:40;11.80;14.10
6496;DHT22;3281;47.658;9.166;2022-11-11T14:16:10;11.70;11.90
6496;DHT22;3281;47.658;9.166;2022-11-11T14:18:43;11.70;11.40
6496;DHT22;3281;47.658;9.166;2022-11-11T14:24:28;11.60;9.70
6496;DHT22;3281;47.658;9.166;2022-11-11T14:26:58;11.60;10.90
6496;DHT22;3281;47.658;9.166;2022-11-11T14:29:29;11.70;9.80
6496;DHT22;3281;47.658;9.166;2022-11-11T14:32:26;11.60;12.20
6496;DHT22;3281;47.658;9.166;2022-11-11T14:35:18;11.60;9.70
6496;DHT22;3281;47.658;9.166;2022-11-11T14:38:10;11.60;11.20
6496;DHT22;3281;47.658;9.166;2022-11-11T14:40:40;11.50;9.70
6496;DHT22;3281;47.658;9.166;2022-11-11T14:43:33;11.50;12.30
6496;DHT22;3281;47.658;9.166;2022-11-11T14:46:02;11.50;13.20
6496;DHT22;3281;47.658;9.166;2022-11-11T14:48:52;11.50;13.00
6496;DHT22;3281;47.658;9.166;2022-11-11T14:54:55;11.50;11.60
6496;DHT22;3281;47.658;9.166;2022-11-11T14:57:24;11.60;13.30
6496;DHT22;3281;47.658;9.166;2022-11-11T14:59:54;11.50;13.10
6496;DHT22;3281;47.658;9.166;2022-11-11T15:02:25;11.60;12.20
6496;DHT22;3281;47.658;9.166;2022-11-11T15:04:57;11.60;9.70
6496;DHT22;3281;47.658;9.166;2022-11-11T15:07:52;11.50;9.60
6496;DHT22;3281;47.658;9.166;2022-11-11T15:11:05;11.50;12.90
6496;DHT22;3281;47.658;9.166;2022-11-11T15:17:03;11.60;12.80
6496;DHT22;3281;47.658;9.166;2022-11-11T15:19:45;11.60;13.50
6496;DHT22;3281;47.658;9.166;2022-11-11T15:22:33;11.50;9.70
6496;DHT22;3281;47.658;9.166;2022-11-11T15:25:14;11.50;14.30
6496;DHT22;3281;47.658;9.166;2022-11-11T15:27:50;11.40;10.50
6496;DHT22;3281;47.658;9.166;2022-11-11T15:30:21;11.50;12.70
6496;DHT22;3281;47.658;9.166;2022-11-11T15:32:58;11.50;8.90
6496;DHT22;3281;47.658;9.166;2022-11-11T15:35:33;11.50;5.10
6496;DHT22;3281;47.658;9.166;2022-11-11T15:38:02;11.40;10.80
6496;DHT22;3281;47.658;9.166;2022-11-11T15:40:32;11.40;6.80
6496;DHT22;3281;47.658;9.166;2022-11-11T15:43:13;11.40;7.20
6496;DHT22;3281;47.658;9.166;2022-11-11T15:45:41;11.30;5.30
6496;DHT22;3281;47.658;9.166;2022-11-11T15:48:15;11.20;7.10
6496;DHT22;3281;47.658;9.166;2022-11-11T15:50:43;11.20;9.50
6496;DHT22;3281;47.658;9.166;2022-11-11T15:53:11;11.30;9.40
6496;DHT22;3281;47.658;9.166;2022-11-11T15:55:38;11.40;9.90
6496;DHT22;3281;47.658;9.166;2022-11-11T15:58:14;11.30;9.50
6496;DHT22;3281;47.658;9.166;2022-11-11T16:00:41;11.20;9.50
6496;DHT22;3281;47.658;9.166;2022-11-11T16:03:13;11.20;12.10
6496;DHT22;3281;47.658;9.166;2022-11-11T16:05:42;11.20;11.40
6496;DHT22;3281;47.658;9.166;2022-11-11T16:08:11;11.20;10.80
6496;DHT22;3281;47.658;9.166;2022-11-11T16:10:42;11.10;9.40
6496;DHT22;3281;47.658;9.166;2022-11-11T16:13:15;11.30;9.50
6496;DHT22;3281;47.658;9.166;2022-11-11T16:15:46;11.30;7.90
6496;DHT22;3281;47.658;9.166;2022-11-11T16:18:17;11.30;9.50
6496;DHT22;3281;47.658;9.166;2022-11-11T16:20:47;11.30;9.30
6496;DHT22;3281;47.658;9.166;2022-11-11T16:23:16;11.40;7.90
6496;DHT22;3281;47.658;9.166;2022-11-11T16:25:44;11.30;9.50
6496;DHT22;3281;47.658;9.166;2022-11-11T16:28:14;11.30;9.50
6496;DHT22;3281;47.658;9.166;2022-11-11T16:30:41;11.30;9.50
6496;DHT22;3281;47.658;9.166;2022-11-11T16:33:18;11.30;11.60
6496;DHT22;3281;47.658;9.166;2022-11-11T16:35:46;11.30;7.60
6496;DHT22;3281;47.658;9.166;2022-11-11T16:38:29;11.20;9.00
6496;DHT22;3281;47.658;9.166;2022-11-11T16:40:56;11.10;7.90
6496;DHT22;3281;47.658;9.166;2022-11-11T16:43:26;11.00;7.50
6496;DHT22;3281;47.658;9.166;2022-11-11T16:45:57;11.00;8.40
6496;DHT22;3281;47.658;9.166;2022-11-11T16:48:38;11.00;8.10
6496;DHT22;3281;47.658;9.166;2022-11-11T16:51:07;11.00;9.90
6496;DHT22;3281;47.658;9.166;2022-11-11T16:53:37;11.10;9.60
6496;DHT22;3281;47.658;9.166;2022-11-11T16:56:14;11.00;12.10
6496;DHT22;3281;47.658;9.166;2022-11-11T16:58:53;10.90;9.30